createdAt,value
2023-12-12T00:01:22.970Z,3.63
2023-12-12T00:03:50.191Z,3.63
2023-12-12T00:06:17.834Z,4.47
2023-12-12T00:08:45.079Z,3.60
2023-12-12T00:11:11.905Z,4.40
2023-12-12T00:13:38.798Z,4.17
2023-12-12T00:16:08.137Z,3.97
2023-12-12T00:18:38.183Z,4.00
2023-12-12T00:21:07.091Z,4.30
2023-12-12T00:23:33.977Z,4.50
2023-12-12T00:26:00.857Z,4.23
2023-12-12T00:28:27.838Z,4.30
2023-12-12T00:30:54.983Z,4.17
2023-12-12T00:33:22.471Z,4.00
2023-12-12T00:35:49.565Z,4.07
2023-12-12T00:38:16.563Z,3.93
2023-12-12T00:40:53.213Z,3.90
2023-12-12T00:43:20.667Z,4.00
2023-12-12T00:45:47.681Z,3.87
2023-12-12T00:48:14.641Z,3.93
2023-12-12T00:50:41.555Z,4.17
2023-12-12T00:53:08.390Z,4.53
2023-12-12T00:55:35.313Z,4.03
2023-12-12T00:58:02.244Z,4.63
2023-12-12T01:00:29.236Z,4.17
2023-12-12T01:02:56.376Z,4.57
2023-12-12T01:05:23.326Z,4.70
2023-12-12T01:07:50.277Z,4.80
2023-12-12T01:10:17.168Z,4.30
2023-12-12T01:12:44.190Z,4.70
2023-12-12T01:15:11.274Z,4.60
2023-12-12T01:17:38.451Z,4.67
2023-12-12T01:20:08.788Z,4.73
2023-12-12T01:22:36.186Z,5.43
2023-12-12T01:25:04.767Z,4.97
2023-12-12T01:27:31.948Z,4.73
2023-12-12T01:29:58.996Z,5.17
2023-12-12T01:32:26.477Z,4.97
2023-12-12T01:34:53.494Z,5.03
2023-12-12T01:37:20.447Z,5.17
2023-12-12T01:39:47.302Z,4.63
2023-12-12T01:42:14.173Z,5.50
2023-12-12T01:44:41.021Z,4.90
2023-12-12T01:47:08.864Z,5.40
2023-12-12T01:49:36.220Z,4.90
2023-12-12T01:52:03.558Z,5.10
2023-12-12T01:54:31.118Z,4.80
2023-12-12T01:56:58.947Z,5.13
2023-12-12T01:59:27.228Z,4.60
2023-12-12T02:01:55.746Z,5.33
2023-12-12T02:04:23.254Z,4.80
2023-12-12T02:06:52.775Z,5.07
2023-12-12T02:09:20.305Z,5.73
2023-12-12T02:11:47.074Z,5.57
2023-12-12T02:14:13.948Z,5.40
2023-12-12T02:16:40.883Z,5.17
2023-12-12T02:19:07.869Z,5.67
2023-12-12T02:21:34.784Z,5.00
2023-12-12T02:24:02.002Z,5.83
2023-12-12T02:26:28.947Z,5.30
2023-12-12T02:28:56.261Z,5.83
2023-12-12T02:31:23.063Z,5.77
2023-12-12T02:33:50.189Z,5.80
2023-12-12T02:36:17.083Z,5.67
2023-12-12T02:38:43.858Z,5.83
2023-12-12T02:41:10.698Z,5.63
2023-12-12T02:43:39.025Z,5.37
2023-12-12T02:46:06.391Z,6.17
2023-12-12T02:48:33.525Z,6.20
2023-12-12T02:51:00.530Z,6.37
2023-12-12T02:53:27.424Z,6.17
2023-12-12T02:55:54.295Z,6.53
2023-12-12T02:58:21.222Z,6.93
2023-12-12T03:00:48.091Z,6.30
2023-12-12T03:03:15.080Z,6.90
2023-12-12T03:05:42.017Z,7.10
2023-12-12T03:08:08.956Z,7.30
2023-12-12T03:10:35.819Z,7.33
2023-12-12T03:13:02.760Z,7.67
2023-12-12T03:15:29.622Z,7.93
2023-12-12T03:17:56.489Z,9.33
2023-12-12T03:20:23.454Z,8.47
2023-12-12T03:22:50.302Z,8.60
2023-12-12T03:25:17.300Z,9.90
2023-12-12T03:27:44.188Z,9.70
2023-12-12T03:30:11.482Z,8.83
2023-12-12T03:32:39.049Z,9.13
2023-12-12T03:35:06.011Z,10.53
2023-12-12T03:37:33.243Z,10.73
2023-12-12T03:40:00.383Z,9.03
2023-12-12T03:42:27.246Z,9.70
2023-12-12T03:44:54.126Z,10.80
2023-12-12T03:47:21.026Z,10.30
2023-12-12T03:49:47.955Z,11.10
2023-12-12T03:52:15.222Z,9.77
2023-12-12T03:54:42.087Z,10.53
2023-12-12T03:57:09.032Z,11.50
2023-12-12T03:59:35.865Z,11.23
2023-12-12T04:02:02.869Z,10.43
2023-12-12T04:04:29.727Z,11.03
2023-12-12T04:06:56.805Z,11.73
2023-12-12T04:09:23.693Z,12.63
2023-12-12T04:11:50.588Z,11.67
2023-12-12T04:14:17.649Z,11.47
2023-12-12T04:25:03.385Z,13.33
2023-12-12T04:27:30.595Z,14.83
2023-12-12T04:34:09.230Z,14.03
2023-12-12T04:36:36.052Z,13.90
2023-12-12T04:39:03.206Z,14.47
2023-12-12T04:41:30.039Z,14.70
2023-12-12T04:43:56.977Z,15.03
2023-12-12T04:46:23.863Z,13.13
2023-12-12T04:48:51.018Z,14.73
2023-12-12T04:51:17.882Z,13.47
2023-12-12T04:53:44.678Z,14.83
2023-12-12T04:56:11.587Z,14.33
2023-12-12T04:58:38.460Z,13.93
2023-12-12T05:01:05.749Z,13.90
2023-12-12T05:03:33.998Z,12.63
2023-12-12T05:06:01.703Z,12.70
2023-12-12T05:08:28.573Z,13.60
2023-12-12T05:10:55.726Z,14.20
2023-12-12T05:13:22.703Z,14.47
2023-12-12T05:15:49.710Z,13.53
2023-12-12T05:18:16.823Z,13.93
2023-12-12T05:20:44.042Z,14.60
2023-12-12T05:23:12.205Z,13.80
2023-12-12T05:25:39.152Z,13.80
2023-12-12T05:28:06.022Z,13.80
2023-12-12T05:30:32.975Z,13.53
2023-12-12T05:32:59.878Z,14.83
2023-12-12T05:35:27.157Z,14.43
2023-12-12T05:37:53.948Z,14.77
2023-12-12T05:40:20.775Z,14.47
2023-12-12T05:42:47.616Z,14.53
2023-12-12T05:49:22.666Z,14.40
2023-12-12T05:51:49.846Z,15.37
2023-12-12T05:54:16.863Z,15.93
2023-12-12T05:56:44.528Z,15.57
2023-12-12T05:59:15.308Z,15.03
2023-12-12T06:01:43.230Z,14.93
2023-12-12T06:04:14.459Z,14.10
2023-12-12T06:06:43.611Z,14.80
2023-12-12T06:09:14.322Z,13.83
2023-12-12T06:11:43.218Z,14.30
2023-12-12T06:14:10.428Z,14.70
2023-12-12T06:16:39.212Z,13.50
2023-12-12T06:19:07.064Z,14.23
2023-12-12T06:21:34.860Z,14.47
2023-12-12T06:24:03.415Z,12.27
2023-12-12T06:26:33.504Z,12.73
2023-12-12T06:29:00.596Z,12.23
2023-12-12T06:31:27.845Z,13.57
2023-12-12T06:33:55.004Z,13.83
2023-12-12T06:36:22.094Z,13.30
2023-12-12T06:38:49.032Z,13.43
2023-12-12T06:41:15.877Z,13.77
2023-12-12T06:43:46.456Z,13.30
2023-12-12T06:46:13.373Z,13.33
2023-12-12T06:48:40.461Z,11.63
2023-12-12T06:51:07.883Z,12.07
2023-12-12T06:53:34.811Z,11.90
2023-12-12T06:56:02.094Z,12.27
2023-12-12T06:58:28.947Z,12.67
2023-12-12T07:00:56.392Z,11.87
2023-12-12T07:03:23.337Z,12.30
2023-12-12T07:05:52.329Z,11.47
2023-12-12T07:08:20.101Z,11.03
2023-12-12T07:10:47.738Z,11.30
2023-12-12T07:15:59.585Z,11.17
2023-12-12T07:18:26.654Z,11.03
2023-12-12T07:20:54.322Z,11.60
2023-12-12T07:23:21.210Z,10.80
2023-12-12T07:25:48.228Z,10.27
2023-12-12T07:28:15.334Z,11.30
2023-12-12T07:30:43.491Z,10.33
2023-12-12T07:33:10.652Z,10.10
2023-12-12T07:35:37.743Z,11.57
2023-12-12T07:38:04.690Z,11.07
2023-12-12T07:40:32.080Z,10.67
2023-12-12T07:42:59.446Z,11.10
2023-12-12T07:45:26.494Z,10.70
2023-12-12T07:47:54.032Z,11.17
2023-12-12T07:50:21.916Z,9.73
2023-12-12T07:52:49.631Z,10.93
2023-12-12T07:55:16.817Z,10.43
2023-12-12T07:57:43.935Z,10.23
2023-12-12T08:00:11.628Z,11.47
2023-12-12T08:02:38.802Z,12.10
2023-12-12T08:05:07.292Z,12.00
2023-12-12T08:07:34.578Z,11.93
2023-12-12T08:10:01.772Z,12.37
2023-12-12T08:12:28.769Z,13.33
2023-12-12T08:14:56.610Z,13.03
2023-12-12T08:17:23.801Z,13.77
2023-12-12T08:19:50.843Z,13.73
2023-12-12T08:22:17.870Z,13.10
2023-12-12T08:24:46.470Z,13.50
2023-12-12T08:27:14.234Z,12.73
2023-12-12T08:29:41.220Z,12.93
2023-12-12T08:32:08.026Z,12.83
2023-12-12T08:34:34.989Z,11.67
2023-12-12T08:37:02.383Z,12.70
2023-12-12T08:39:30.084Z,12.43
2023-12-12T08:41:57.016Z,13.67
2023-12-12T08:44:24.448Z,15.07
2023-12-12T08:46:51.751Z,14.73
2023-12-12T08:49:19.903Z,13.20
2023-12-12T08:51:47.100Z,12.63
2023-12-12T08:54:14.032Z,13.10
2023-12-12T08:56:42.783Z,13.07
2023-12-12T08:59:09.637Z,11.43
2023-12-12T09:01:36.551Z,11.43
2023-12-12T09:04:03.875Z,12.27
2023-12-12T09:06:30.792Z,12.10
2023-12-12T09:08:57.693Z,13.07
2023-12-12T09:11:24.539Z,12.87
2023-12-12T09:13:51.352Z,11.80
2023-12-12T09:16:18.267Z,10.83
2023-12-12T09:18:45.390Z,12.27
2023-12-12T09:21:12.622Z,10.67
2023-12-12T09:23:42.694Z,11.97
2023-12-12T09:26:16.472Z,11.60
2023-12-12T09:28:43.884Z,11.67
2023-12-12T09:31:11.799Z,10.97
2023-12-12T09:33:39.276Z,9.80
2023-12-12T09:36:10.366Z,8.70
2023-12-12T09:38:37.528Z,8.33
2023-12-12T09:41:04.693Z,7.83
2023-12-12T09:43:32.689Z,8.43
2023-12-12T09:46:00.558Z,8.17
2023-12-12T09:48:27.439Z,7.50
2023-12-12T09:50:57.889Z,8.57
2023-12-12T09:53:25.227Z,7.53
2023-12-12T09:55:53.536Z,7.63
2023-12-12T09:58:20.488Z,7.80
2023-12-12T10:00:47.669Z,8.10
2023-12-12T10:03:15.320Z,7.77
2023-12-12T10:05:48.358Z,7.63
2023-12-12T10:08:16.080Z,8.10
2023-12-12T10:10:43.517Z,7.60
2023-12-12T10:13:10.837Z,9.90
2023-12-12T10:15:37.820Z,8.83
2023-12-12T10:18:04.865Z,9.10
2023-12-12T10:20:33.043Z,8.80
2023-12-12T10:23:02.995Z,8.23
2023-12-12T10:25:30.774Z,9.47
2023-12-12T10:27:58.886Z,7.93
2023-12-12T10:30:27.288Z,7.80
2023-12-12T10:32:55.280Z,8.33
2023-12-12T10:35:23.564Z,8.63
2023-12-12T10:37:51.926Z,8.50
2023-12-12T10:40:22.924Z,8.60
2023-12-12T10:42:50.581Z,8.43
2023-12-12T10:45:18.539Z,8.53
2023-12-12T10:47:50.891Z,8.73
2023-12-12T10:50:19.317Z,9.40
2023-12-12T10:52:49.355Z,8.90
2023-12-12T10:55:17.401Z,8.63
2023-12-12T10:57:45.964Z,8.60
2023-12-12T11:00:17.822Z,8.83
2023-12-12T11:02:47.461Z,9.07
2023-12-12T11:05:16.367Z,9.37
2023-12-12T11:07:49.104Z,9.83
2023-12-12T11:10:19.965Z,9.63
2023-12-12T11:12:51.947Z,8.20
2023-12-12T11:15:20.235Z,8.47
2023-12-12T11:17:49.479Z,9.40
2023-12-12T11:20:18.538Z,9.37
2023-12-12T11:22:51.894Z,9.43
2023-12-12T11:25:23.697Z,9.87
2023-12-12T11:27:53.952Z,9.40
2023-12-12T11:30:30.582Z,8.77
2023-12-12T11:32:58.433Z,9.20
2023-12-12T11:35:33.502Z,9.50
2023-12-12T11:38:06.317Z,8.70
2023-12-12T11:40:38.603Z,8.07
2023-12-12T11:43:25.029Z,8.73
2023-12-12T11:45:53.453Z,8.87
2023-12-12T11:48:20.559Z,8.07
2023-12-12T11:50:47.624Z,7.97
2023-12-12T11:53:41.946Z,8.87
2023-12-12T11:56:09.047Z,8.30
2023-12-12T11:58:36.947Z,8.83
2023-12-12T12:01:04.171Z,10.33
2023-12-12T12:03:31.146Z,9.93
2023-12-12T12:05:58.284Z,9.60
2023-12-12T12:08:26.751Z,8.57
2023-12-12T12:10:58.009Z,8.07
2023-12-12T12:13:25.061Z,7.93
2023-12-12T12:15:51.998Z,8.43
2023-12-12T12:18:28.571Z,8.47
2023-12-12T12:20:55.912Z,8.07
2023-12-12T12:23:23.984Z,8.07
2023-12-12T12:25:51.642Z,8.47
2023-12-12T12:28:18.509Z,8.80
2023-12-12T12:30:47.502Z,7.70
2023-12-12T12:33:14.775Z,7.70
2023-12-12T12:35:51.894Z,7.43
2023-12-12T12:38:32.737Z,7.30
2023-12-12T12:41:00.279Z,8.33
2023-12-12T12:43:27.765Z,6.83
2023-12-12T12:45:55.250Z,8.37
2023-12-12T12:48:22.659Z,6.93
2023-12-12T12:50:51.029Z,7.43
2023-12-12T12:53:18.764Z,7.40
2023-12-12T12:55:46.209Z,7.03
2023-12-12T12:58:14.390Z,7.50
2023-12-12T13:00:45.742Z,6.57
2023-12-12T13:03:14.528Z,6.70
2023-12-12T13:05:41.650Z,6.03
2023-12-12T13:08:08.714Z,6.37
2023-12-12T13:10:43.975Z,5.90
2023-12-12T13:13:17.547Z,5.07
2023-12-12T13:15:44.742Z,5.63
2023-12-12T13:18:11.754Z,5.47
2023-12-12T13:20:38.825Z,4.67
2023-12-12T13:23:05.733Z,4.63
2023-12-12T13:25:32.941Z,4.43
2023-12-12T13:28:00.397Z,4.80
2023-12-12T13:30:27.414Z,5.07
2023-12-12T13:32:54.668Z,4.97
2023-12-12T13:35:33.970Z,4.80
2023-12-12T13:38:04.539Z,4.93
2023-12-12T13:40:32.579Z,4.80
2023-12-12T13:42:59.857Z,5.63
2023-12-12T13:45:26.861Z,6.13
2023-12-12T13:47:53.890Z,5.30
2023-12-12T13:50:21.648Z,6.00
2023-12-12T13:52:48.558Z,7.27
2023-12-12T13:55:15.653Z,6.27
2023-12-12T13:57:42.533Z,6.07
2023-12-12T14:00:10.944Z,6.67
2023-12-12T14:02:38.546Z,6.27
2023-12-12T14:05:06.846Z,9.47
2023-12-12T14:07:34.008Z,6.10
2023-12-12T14:10:02.189Z,6.20
2023-12-12T14:12:29.146Z,6.60
2023-12-12T14:14:57.216Z,6.17
2023-12-12T14:17:24.225Z,7.20
2023-12-12T14:19:51.701Z,7.63
2023-12-12T14:22:18.572Z,7.80
2023-12-12T14:24:45.460Z,7.30
2023-12-12T14:27:12.296Z,8.23
2023-12-12T14:29:39.334Z,10.07
2023-12-12T14:32:07.302Z,6.57
2023-12-12T14:34:34.670Z,7.70
2023-12-12T14:37:02.457Z,7.57
2023-12-12T14:39:29.617Z,7.33
2023-12-12T14:41:56.559Z,6.90
2023-12-12T14:44:23.449Z,7.13
2023-12-12T14:46:51.914Z,7.30
2023-12-12T14:49:18.946Z,7.00
2023-12-12T14:51:45.893Z,7.57
2023-12-12T14:54:12.945Z,7.60
2023-12-12T14:56:43.373Z,7.43
2023-12-12T14:59:10.902Z,8.03
2023-12-12T15:01:37.952Z,7.37
2023-12-12T15:04:05.317Z,7.80
2023-12-12T15:06:32.856Z,8.13
2023-12-12T15:09:00.678Z,8.47
2023-12-12T15:11:27.620Z,8.43
2023-12-12T15:13:54.410Z,8.67
2023-12-12T15:16:21.344Z,8.43
2023-12-12T15:18:48.436Z,9.03
2023-12-12T15:21:15.676Z,9.07
2023-12-12T15:23:42.813Z,12.20
2023-12-12T15:26:09.800Z,9.70
2023-12-12T15:28:36.754Z,8.53
2023-12-12T15:31:03.963Z,9.40
2023-12-12T15:33:34.260Z,9.97
2023-12-12T15:36:08.108Z,8.60
2023-12-12T15:38:38.176Z,9.40
2023-12-12T15:41:05.431Z,9.50
2023-12-12T15:43:35.099Z,9.23
2023-12-12T15:46:02.661Z,9.83
2023-12-12T15:48:30.081Z,10.00
2023-12-12T15:50:57.155Z,10.13
2023-12-12T15:53:23.979Z,10.43
2023-12-12T15:55:53.850Z,10.00
2023-12-12T15:58:21.021Z,10.13
2023-12-12T16:00:48.137Z,10.60
2023-12-12T16:03:15.022Z,10.53
2023-12-12T16:05:43.690Z,11.47
2023-12-12T16:08:13.132Z,10.87
2023-12-12T16:10:40.226Z,11.07
2023-12-12T16:13:07.142Z,12.03
2023-12-12T16:15:34.065Z,12.30
2023-12-12T16:18:01.169Z,12.23
2023-12-12T16:20:28.243Z,11.80
2023-12-12T16:22:55.210Z,12.77
2023-12-12T16:25:22.188Z,14.73
2023-12-12T16:27:51.938Z,13.87
2023-12-12T16:30:20.710Z,17.13
2023-12-12T16:32:54.195Z,15.40
2023-12-12T16:35:23.981Z,13.93
2023-12-12T16:37:51.328Z,14.33
2023-12-12T16:40:18.266Z,13.43
2023-12-12T16:42:45.208Z,13.10
2023-12-12T16:45:15.333Z,13.13
2023-12-12T16:47:42.795Z,12.63
2023-12-12T16:50:11.664Z,11.83
2023-12-12T16:52:39.015Z,12.77
2023-12-12T16:55:08.080Z,12.50
2023-12-12T16:57:37.338Z,12.93
2023-12-12T17:00:08.714Z,14.60
2023-12-12T17:02:35.620Z,14.63
2023-12-12T17:05:02.617Z,14.20
2023-12-12T17:07:29.617Z,18.63
2023-12-12T17:09:56.625Z,18.07
2023-12-12T17:12:23.569Z,15.33
2023-12-12T17:14:53.858Z,16.80
2023-12-12T17:17:20.953Z,19.17
2023-12-12T17:19:47.940Z,18.60
2023-12-12T17:22:14.856Z,14.50
2023-12-12T17:24:41.744Z,15.20
2023-12-12T17:27:08.549Z,16.50
2023-12-12T17:29:35.466Z,20.90
2023-12-12T17:32:09.240Z,15.93
2023-12-12T17:34:38.042Z,14.73
2023-12-12T17:37:05.012Z,15.07
2023-12-12T17:39:31.894Z,16.83
2023-12-12T17:42:01.025Z,15.43
2023-12-12T17:44:29.324Z,16.83
2023-12-12T17:46:56.137Z,18.57
2023-12-12T17:49:22.955Z,19.43
2023-12-12T17:51:49.825Z,19.90
2023-12-12T17:54:16.925Z,18.70
2023-12-12T17:56:43.820Z,17.30
2023-12-12T17:59:10.965Z,14.23
2023-12-12T18:01:38.709Z,16.77
2023-12-12T18:04:05.999Z,14.63
2023-12-12T18:06:33.498Z,14.10
2023-12-12T18:09:00.841Z,13.47
2023-12-12T18:11:28.338Z,11.17
2023-12-12T18:13:55.497Z,10.43
2023-12-12T18:16:22.629Z,9.97
2023-12-12T18:18:49.983Z,10.20
2023-12-12T18:21:18.996Z,9.33
2023-12-12T18:23:46.012Z,8.90
2023-12-12T18:26:13.134Z,9.57
2023-12-12T18:28:44.209Z,11.23
2023-12-12T18:31:11.476Z,12.17
2023-12-12T18:33:38.668Z,10.93
2023-12-12T18:36:06.532Z,11.37
2023-12-12T18:38:33.352Z,11.53
2023-12-12T18:41:00.180Z,11.03
2023-12-12T18:43:27.154Z,13.60
2023-12-12T18:45:54.087Z,13.93
2023-12-12T18:48:21.096Z,17.00
2023-12-12T18:50:48.013Z,15.13
2023-12-12T18:53:14.925Z,13.83
2023-12-12T18:55:41.844Z,14.47
2023-12-12T18:58:08.798Z,11.67
2023-12-12T19:00:36.170Z,11.63
2023-12-12T19:03:05.068Z,11.60
2023-12-12T19:05:32.298Z,12.20
2023-12-12T19:08:00.743Z,12.87
2023-12-12T19:10:27.572Z,11.87
2023-12-12T19:12:54.921Z,10.97
2023-12-12T19:15:23.173Z,10.77
2023-12-12T19:17:50.219Z,11.07
2023-12-12T19:20:18.202Z,11.73
2023-12-12T19:22:45.246Z,11.53
2023-12-12T19:25:12.251Z,13.93
2023-12-12T19:27:39.101Z,11.87
2023-12-12T19:30:10.649Z,11.97
2023-12-12T19:32:38.800Z,11.67
2023-12-12T19:35:07.997Z,12.70
2023-12-12T19:37:36.536Z,11.93
2023-12-12T19:40:07.529Z,13.13
2023-12-12T19:42:35.119Z,13.53
2023-12-12T19:45:03.112Z,14.40
2023-12-12T19:47:30.300Z,15.40
2023-12-12T19:49:58.522Z,15.00
2023-12-12T19:52:28.079Z,15.13
2023-12-12T19:54:54.927Z,14.93
2023-12-12T19:57:21.849Z,14.60
2023-12-12T19:59:49.451Z,14.77
2023-12-12T20:02:16.946Z,14.33
2023-12-12T20:04:43.917Z,13.07
2023-12-12T20:07:11.941Z,12.97
2023-12-12T20:09:42.481Z,13.17
2023-12-12T20:12:12.537Z,12.20
2023-12-12T20:14:39.537Z,9.47
2023-12-12T20:17:06.696Z,8.63
2023-12-12T20:19:34.084Z,8.27
2023-12-12T20:22:01.221Z,9.83
2023-12-12T20:24:29.155Z,9.77
2023-12-12T20:26:56.353Z,10.13
2023-12-12T20:29:23.200Z,10.43
2023-12-12T20:31:50.275Z,12.27
2023-12-12T20:34:17.372Z,12.30
2023-12-12T20:36:44.398Z,10.80
2023-12-12T20:39:13.507Z,11.90
2023-12-12T20:41:42.505Z,10.40
2023-12-12T20:44:09.355Z,11.27
2023-12-12T20:46:40.132Z,11.80
2023-12-12T20:49:07.208Z,10.23
2023-12-12T20:51:36.588Z,10.93
2023-12-12T20:54:05.374Z,10.63
2023-12-12T20:56:34.759Z,11.27
2023-12-12T20:59:01.655Z,11.40
2023-12-12T21:01:28.551Z,10.80
2023-12-12T21:03:55.994Z,10.70
2023-12-12T21:06:22.990Z,11.23
2023-12-12T21:08:49.880Z,11.13
2023-12-12T21:11:16.874Z,11.37
2023-12-12T21:13:43.733Z,10.57
2023-12-12T21:16:20.323Z,9.40
2023-12-12T21:18:47.498Z,10.13
2023-12-12T21:21:14.490Z,9.57
2023-12-12T21:23:41.495Z,9.17
2023-12-12T21:26:08.946Z,9.17
2023-12-12T21:28:39.151Z,9.73
2023-12-12T21:31:07.457Z,9.50
2023-12-12T21:33:34.754Z,7.80
2023-12-12T21:36:01.855Z,8.90
2023-12-12T21:38:29.771Z,8.37
2023-12-12T21:40:56.954Z,7.90
2023-12-12T21:43:23.989Z,7.47
2023-12-12T21:45:52.313Z,8.37
2023-12-12T21:48:19.524Z,6.90
2023-12-12T21:50:46.437Z,8.23
2023-12-12T21:53:13.255Z,8.03
2023-12-12T21:55:40.818Z,7.97
2023-12-12T21:58:08.192Z,7.73
2023-12-12T22:00:35.101Z,7.70
2023-12-12T22:03:01.914Z,8.03
2023-12-12T22:05:28.752Z,8.33
2023-12-12T22:07:55.682Z,8.20
2023-12-12T22:10:22.572Z,9.65
2023-12-12T22:12:49.417Z,8.83
2023-12-12T22:15:16.303Z,8.77
2023-12-12T22:17:43.518Z,7.70
2023-12-12T22:20:10.878Z,7.33
2023-12-12T22:22:40.023Z,7.87
2023-12-12T22:25:07.416Z,7.07
2023-12-12T22:27:34.836Z,7.97
2023-12-12T22:30:02.428Z,7.17
2023-12-12T22:32:29.485Z,6.47
2023-12-12T22:34:56.500Z,6.50
2023-12-12T22:37:23.496Z,7.13
2023-12-12T22:39:50.536Z,7.03
2023-12-12T22:42:17.401Z,6.87
2023-12-12T22:44:44.242Z,7.30
2023-12-12T22:47:12.169Z,7.50
2023-12-12T22:49:39.373Z,7.50
2023-12-12T22:52:06.750Z,6.73
2023-12-12T22:54:33.710Z,6.80
2023-12-12T22:57:00.930Z,6.37
2023-12-12T22:59:27.853Z,6.60
2023-12-12T23:01:54.755Z,6.17
2023-12-12T23:04:21.681Z,6.37
2023-12-12T23:06:49.296Z,6.10
2023-12-12T23:09:16.271Z,6.20
2023-12-12T23:11:43.098Z,5.73
2023-12-12T23:14:09.941Z,5.37
2023-12-12T23:16:37.116Z,6.03
2023-12-12T23:19:04.022Z,5.67
2023-12-12T23:21:31.060Z,5.60
2023-12-12T23:23:58.852Z,5.53
2023-12-12T23:26:26.659Z,5.23
2023-12-12T23:28:53.566Z,5.20
2023-12-12T23:31:20.564Z,5.93
2023-12-12T23:33:47.765Z,6.10
2023-12-12T23:36:14.665Z,5.73
2023-12-12T23:38:41.504Z,5.20
2023-12-12T23:41:08.300Z,5.00
2023-12-12T23:43:36.850Z,5.97
2023-12-12T23:46:04.815Z,5.80
2023-12-12T23:48:31.707Z,5.83
2023-12-12T23:50:58.706Z,5.50
2023-12-12T23:53:33.601Z,6.07
2023-12-12T23:56:01.630Z,6.20
2023-12-12T23:58:28.444Z,6.17
